Storm Events Database

Event Details

Event Tornado
-- Scale EF3
-- Length 4 Miles
-- Width 200 Yards
State SOUTH DAKOTA
County/Area AURORA
WFO FSD
Report Source Law Enforcement
NCDC Data Source CSV
Begin Date 2007-05-05 17:05:00.0 CST-6
Begin Location 4SE PLANKINTON
Begin Lat/Lon 43.68/-98.42
End Date 2007-05-05 17:13:00.0 CST-6
End Location 2NE PLANKINTON
End Lat/Lon 43.74/-98.45
Deaths Direct/Indirect 0/0 (fatality details below, when available...)
Injuries Direct/Indirect 0/0
Property Damage 300.00K
Crop Damage 0.00K
Episode Narrative Numerous thunderstorms during the afternoon and evening of May 5th produced large hail, damaging winds, several tornadoes, and flash flooding in southeast South Dakota. Significant damage was reported from several locations.
Event Narrative A tornado destroyed a hunting lodge and nearby outbuildings. The tornado also severely damaged a house, tossed a trailer 100 yards, and caused tree damage.


     ‚Äč



All events for this episode:

Location County/Zone St. Date Time T.Z. Type Mag Dth Inj PrD CrD
Totals: 0 1 849.00K 0.00K
WORTHING LINCOLN CO. SD 05/05/2007 11:50 CST-6 Hail 0.75 in. 0 0 0.00K 0.00K
HARRISBURG LINCOLN CO. SD 05/05/2007 12:00 CST-6 Hail 1.00 in. 0 0 0.00K 0.00K
WORTHING LINCOLN CO. SD 05/05/2007 12:00 CST-6 Hail 0.75 in. 0 0 0.00K 0.00K
YANKTON YANKTON CO. SD 05/05/2007 12:00 CST-6 Hail 1.00 in. 0 0 0.00K 0.00K
SIOUX FALLS MINNEHAHA CO. SD 05/05/2007 12:13 CST-6 Hail 0.75 in. 0 0 0.00K 0.00K
MARION TURNER CO. SD 05/05/2007 12:32 CST-6 Hail 0.75 in. 0 0 0.00K 0.00K
UTICA YANKTON CO. SD 05/05/2007 12:38 CST-6 Hail 0.75 in. 0 0 0.00K 0.00K
UTICA YANKTON CO. SD 05/05/2007 12:55 CST-6 Hail 0.75 in. 0 0 0.00K 0.00K
SALEM MCCOOK CO. SD 05/05/2007 13:50 CST-6 Hail 0.75 in. 0 0 0.00K 0.00K
WINFRED LAKE CO. SD 05/05/2007 14:00 CST-6 Hail 0.88 in. 0 0 0.00K 0.00K
EMERY HANSON CO. SD 05/05/2007 14:15 CST-6 Thunderstorm Wind 61 kts. EG 0 0 5.00K 0.00K
HOWARD MINER CO. SD 05/05/2007 14:15 CST-6 Hail 0.75 in. 0 0 0.00K 0.00K
LESTERVILLE YANKTON CO. SD 05/05/2007 14:15 CST-6 Flash Flood 0 0 0.00K 0.00K
SCOTLAND BON HOMME CO. SD 05/05/2007 14:15 CST-6 Flash Flood 0 0 0.00K 0.00K
ALEXANDRIA HANSON CO. SD 05/05/2007 14:30 CST-6 Flash Flood 0 0 0.00K 0.00K
SPENCER MCCOOK CO. SD 05/05/2007 14:34 CST-6 Hail 0.75 in. 0 0 0.00K 0.00K
EPIPHANY MINER CO. SD 05/05/2007 14:45 CST-6 Flash Flood 0 0 0.00K 0.00K
ALEXANDRIA HANSON CO. SD 05/05/2007 14:50 CST-6 Hail 0.75 in. 0 0 0.00K 0.00K
CANOVA MINER CO. SD 05/05/2007 14:55 CST-6 Thunderstorm Wind 52 kts. EG 0 0 5.00K 0.00K
SPRINGFIELD BON HOMME CO. SD 05/05/2007 15:05 CST-6 Thunderstorm Wind 65 kts. EG 0 0 10.00K 0.00K
FEDORA MINER CO. SD 05/05/2007 15:06 CST-6 Hail 1.00 in. 0 0 0.00K 0.00K
BANCROFT KINGSBURY CO. SD 05/05/2007 15:30 CST-6 Flash Flood 0 0 0.00K 0.00K
FULTON HANSON CO. SD 05/05/2007 15:30 CST-6 Thunderstorm Wind 52 kts. EG 0 0 0.00K 0.00K
HURON BEADLE CO. SD 05/05/2007 15:30 CST-6 Flash Flood 0 0 0.00K 0.00K
TRIPP HUTCHINSON CO. SD 05/05/2007 15:30 CST-6 Flash Flood 0 0 0.00K 0.00K
CARTHAGE MINER CO. SD 05/05/2007 15:31 CST-6 Tornado EF1 0 0 2.00K 0.00K
TYNDALL BON HOMME CO. SD 05/05/2007 15:33 CST-6 Tornado EF2 0 0 50.00K 0.00K
GREGORY GREGORY CO. SD 05/05/2007 15:35 CST-6 Thunderstorm Wind 65 kts. EG 0 0 30.00K 0.00K
HOWARD MINER CO. SD 05/05/2007 15:35 CST-6 Tornado EF2 0 0 20.00K 0.00K
CARTHAGE MINER CO. SD 05/05/2007 15:42 CST-6 Hail 1.00 in. 0 0 0.00K 0.00K
TYNDALL BON HOMME CO. SD 05/05/2007 15:43 CST-6 Tornado EF2 0 0 100.00K 0.00K
FORESTBURG SANBORN CO. SD 05/05/2007 16:00 CST-6 Flash Flood 0 0 0.00K 0.00K
TRIPP HUTCHINSON CO. SD 05/05/2007 16:00 CST-6 Tornado EF0 0 0 0.00K 0.00K
GREGORY GREGORY CO. SD 05/05/2007 16:02 CST-6 Hail 0.75 in. 0 0 0.00K 0.00K
DIMOCK HUTCHINSON CO. SD 05/05/2007 16:10 CST-6 Tornado EF0 0 0 0.00K 0.00K
PARKSTON HUTCHINSON CO. SD 05/05/2007 16:16 CST-6 Tornado EF1 0 0 0.00K 0.00K
ARTESIAN SANBORN CO. SD 05/05/2007 16:20 CST-6 Thunderstorm Wind 61 kts. EG 0 0 0.00K 0.00K
RIVERSIDE HANSON CO. SD 05/05/2007 16:20 CST-6 Tornado EF1 0 0 10.00K 0.00K
MITCHELL DAVISON CO. SD 05/05/2007 16:24 CST-6 Tornado EF0 0 0 0.00K 0.00K
RIVERSIDE HANSON CO. SD 05/05/2007 16:25 CST-6 Hail 1.00 in. 0 0 0.00K 0.00K
IROQUOIS BEADLE CO. SD 05/05/2007 16:30 CST-6 Thunderstorm Wind 57 kts. EG 0 0 5.00K 0.00K
MANCHESTER KINGSBURY CO. SD 05/05/2007 16:33 CST-6 Thunderstorm Wind 65 kts. EG 0 0 5.00K 0.00K
ALEXANDRIA HANSON CO. SD 05/05/2007 16:41 CST-6 Tornado EF1 0 0 10.00K 0.00K
MITCHELL DAVISON CO. SD 05/05/2007 16:45 CST-6 Hail 1.75 in. 0 0 0.00K 0.00K
RIVERSIDE HANSON CO. SD 05/05/2007 16:45 CST-6 Hail 1.75 in. 0 0 0.00K 0.00K
MITCHELL DAVISON CO. SD 05/05/2007 16:50 CST-6 Tornado EF0 0 0 0.00K 0.00K
YANKTON YANKTON CO. SD 05/05/2007 16:52 CST-6 Tornado EF0 0 0 0.00K 0.00K
YANKTON YANKTON CO. SD 05/05/2007 16:52 CST-6 Tornado EF1 0 1 100.00K 0.00K
BANCROFT KINGSBURY CO. SD 05/05/2007 17:00 CST-6 Thunderstorm Wind 57 kts. EG 0 0 0.00K 0.00K
PLANKINTON AURORA CO. SD 05/05/2007 17:05 CST-6 Tornado EF3 0 0 300.00K 0.00K
FAIRFAX GREGORY CO. SD 05/05/2007 17:09 CST-6 Hail 1.00 in. 0 0 0.00K 0.00K
ARTESIAN SANBORN CO. SD 05/05/2007 17:15 CST-6 Tornado EF1 0 0 20.00K 0.00K
LESTERVILLE YANKTON CO. SD 05/05/2007 17:17 CST-6 Tornado EF2 0 0 100.00K 0.00K
LANE JERAULD CO. SD 05/05/2007 17:25 CST-6 Hail 1.00 in. 0 0 0.00K 0.00K
MENNO HUTCHINSON CO. SD 05/05/2007 17:25 CST-6 Hail 1.75 in. 0 0 0.00K 0.00K
PLATTE CHARLES MIX CO. SD 05/05/2007 17:27 CST-6 Hail 1.00 in. 0 0 0.00K 0.00K
GREGORY GREGORY CO. SD 05/05/2007 17:30 CST-6 Tornado EF0 0 0 0.00K 0.00K
GREGORY GREGORY CO. SD 05/05/2007 17:30 CST-6 Tornado EF0 0 0 0.00K 0.00K
PARKER TURNER CO. SD 05/05/2007 17:30 CST-6 Thunderstorm Wind 52 kts. EG 0 0 0.00K 0.00K
PLATTE CHARLES MIX CO. SD 05/05/2007 17:32 CST-6 Thunderstorm Wind 52 kts. EG 0 0 0.00K 0.00K
PLATTE CHARLES MIX CO. SD 05/05/2007 17:32 CST-6 Hail 1.00 in. 0 0 0.00K 0.00K
PLATTE CHARLES MIX CO. SD 05/05/2007 17:35 CST-6 Hail 1.75 in. 0 0 0.00K 0.00K
PLATTE CHARLES MIX CO. SD 05/05/2007 17:35 CST-6 Tornado EF0 0 0 0.00K 0.00K
PLATTE CHARLES MIX CO. SD 05/05/2007 17:37 CST-6 Hail 1.75 in. 0 0 0.00K 0.00K
FREEMAN HUTCHINSON CO. SD 05/05/2007 17:40 CST-6 Thunderstorm Wind 52 kts. EG 0 0 0.00K 0.00K
KIMBALL BRULE CO. SD 05/05/2007 17:40 CST-6 Tornado EF1 0 0 0.00K 0.00K
FREEMAN HUTCHINSON CO. SD 05/05/2007 17:55 CST-6 Thunderstorm Wind 57 kts. EG 0 0 0.00K 0.00K
BRIDGEWATER MCCOOK CO. SD 05/05/2007 18:03 CST-6 Thunderstorm Wind 52 kts. EG 0 0 0.00K 0.00K
LOOMIS DAVISON CO. SD 05/05/2007 18:08 CST-6 Hail 0.88 in. 0 0 0.00K 0.00K
CHAMBERLAIN BRULE CO. SD 05/05/2007 18:10 CST-6 Hail 1.25 in. 0 0 0.00K 0.00K
BURKE GREGORY CO. SD 05/05/2007 18:22 CST-6 Hail 0.88 in. 0 0 0.00K 0.00K
WESSINGTON BEADLE CO. SD 05/05/2007 18:22 CST-6 Thunderstorm Wind 65 kts. EG 0 0 0.00K 0.00K
SPENCER MCCOOK CO. SD 05/05/2007 18:23 CST-6 Tornado EF2 0 0 50.00K 0.00K
KIMBALL BRULE CO. SD 05/05/2007 18:25 CST-6 Thunderstorm Wind 52 kts. EG 0 0 0.00K 0.00K
FARMER HANSON CO. SD 05/05/2007 18:29 CST-6 Tornado EF2 0 0 10.00K 0.00K
PUKWANA BRULE CO. SD 05/05/2007 18:30 CST-6 Flash Flood 0 0 0.00K 0.00K
WESSINGTON SPGS JERAULD CO. SD 05/05/2007 18:30 CST-6 Hail 0.75 in. 0 0 0.00K 0.00K
PLATTE CHARLES MIX CO. SD 05/05/2007 18:36 CST-6 Hail 1.75 in. 0 0 0.00K 0.00K
CARTHAGE MINER CO. SD 05/05/2007 18:47 CST-6 Tornado EF1 0 0 10.00K 0.00K
VILAS MINER CO. SD 05/05/2007 18:47 CST-6 Tornado EF0 0 0 0.00K 0.00K
CARTHAGE MINER CO. SD 05/05/2007 18:56 CST-6 Tornado EF0 0 0 1.00K 0.00K
ESMOND KINGSBURY CO. SD 05/05/2007 19:00 CST-6 Thunderstorm Wind 69 kts. EG 0 0 5.00K 0.00K
WOLSEY BEADLE CO. SD 05/05/2007 19:00 CST-6 Hail 1.00 in. 0 0 0.00K 0.00K
CARTHAGE MINER CO. SD 05/05/2007 19:03 CST-6 Tornado EF1 0 0 1.00K 0.00K
BURKE GREGORY CO. SD 05/05/2007 19:10 CST-6 Hail 0.75 in. 0 0 0.00K 0.00K
PLATTE CHARLES MIX CO. SD 05/05/2007 19:16 CST-6 Hail 1.00 in. 0 0 0.00K 0.00K
KIMBALL BRULE CO. SD 05/05/2007 19:20 CST-6 Hail 1.00 in. 0 0 0.00K 0.00K
PLATTE CHARLES MIX CO. SD 05/05/2007 19:36 CST-6 Thunderstorm Wind 52 kts. EG 0 0 0.00K 0.00K
WOLSEY BEADLE CO. SD 05/05/2007 19:36 CST-6 Tornado EF0 0 0 0.00K 0.00K
HITCHCOCK BEADLE CO. SD 05/05/2007 20:29 CST-6 Hail 0.88 in. 0 0 0.00K 0.00K
TABOR BON HOMME CO. SD 05/05/2007 22:53 CST-6 Hail 0.75 in. 0 0 0.00K 0.00K
Totals: 0 1 849.00K 0.00K